createdAt,value
2017-07-21T00:01:01.565Z,77.80
2017-07-21T00:03:28.005Z,77.70
2017-07-21T00:05:54.473Z,78.00
2017-07-21T00:08:20.876Z,77.90
2017-07-21T00:10:47.285Z,77.60
2017-07-21T00:13:14.469Z,77.50
2017-07-21T00:15:40.879Z,77.50
2017-07-21T00:18:07.281Z,77.60
2017-07-21T00:20:33.737Z,77.70
2017-07-21T00:23:00.161Z,77.80
2017-07-21T00:25:27.275Z,78.40
2017-07-21T00:27:53.703Z,78.40
2017-07-21T00:30:20.107Z,78.10
2017-07-21T00:32:46.510Z,78.30
2017-07-21T00:35:13.656Z,78.10
2017-07-21T00:37:40.800Z,77.40
2017-07-21T00:40:07.234Z,77.40
2017-07-21T00:42:34.386Z,78.00
2017-07-21T00:45:00.800Z,77.60
2017-07-21T00:47:27.223Z,77.60
2017-07-21T00:49:53.629Z,77.80
2017-07-21T00:52:20.070Z,77.70
2017-07-21T00:54:46.452Z,77.40
2017-07-21T00:57:12.913Z,77.80
2017-07-21T00:59:39.326Z,77.60
2017-07-21T01:02:06.453Z,77.40
2017-07-21T01:04:32.863Z,77.40
2017-07-21T01:06:59.263Z,77.50
2017-07-21T01:09:26.513Z,77.60
2017-07-21T01:11:52.907Z,77.30
2017-07-21T01:14:19.302Z,77.40
2017-07-21T01:16:45.674Z,77.10
2017-07-21T01:19:13.839Z,77.00
2017-07-21T01:21:40.315Z,77.20
2017-07-21T01:24:06.735Z,77.20
2017-07-21T01:26:33.871Z,77.10
2017-07-21T01:29:01.009Z,77.70
2017-07-21T01:31:27.456Z,77.10
2017-07-21T01:33:55.539Z,77.80
2017-07-21T01:36:22.760Z,77.50
2017-07-21T01:38:49.169Z,77.40
2017-07-21T01:41:15.609Z,77.60
2017-07-21T01:43:42.010Z,77.60
2017-07-21T01:46:08.441Z,77.70
2017-07-21T01:48:35.769Z,77.40
2017-07-21T01:51:02.941Z,76.60
2017-07-21T01:53:29.381Z,76.50
2017-07-21T01:55:55.838Z,76.20
2017-07-21T01:58:22.282Z,76.10
2017-07-21T02:00:48.708Z,76.40
2017-07-21T02:03:15.111Z,76.40
2017-07-21T02:05:41.911Z,76.80
2017-07-21T02:08:08.312Z,76.10
2017-07-21T02:10:34.718Z,76.30
2017-07-21T02:13:01.124Z,76.10
2017-07-21T02:15:28.267Z,76.70
2017-07-21T02:17:55.409Z,76.70
2017-07-21T02:20:21.788Z,76.70
2017-07-21T02:22:48.207Z,76.90
2017-07-21T02:25:14.646Z,76.50
2017-07-21T02:27:41.048Z,76.40
2017-07-21T02:30:08.197Z,77.00
2017-07-21T02:32:35.404Z,76.20
2017-07-21T02:35:01.842Z,76.20
2017-07-21T02:37:28.241Z,76.10
2017-07-21T02:39:54.721Z,76.20
2017-07-21T02:42:21.147Z,76.50
2017-07-21T02:44:47.560Z,76.20
2017-07-21T02:47:13.954Z,75.80
2017-07-21T02:49:41.383Z,75.90
2017-07-21T02:52:07.812Z,75.80
2017-07-21T02:54:34.225Z,76.10
2017-07-21T02:57:00.608Z,75.80
2017-07-21T02:59:27.764Z,76.10
2017-07-21T03:01:54.915Z,76.40
2017-07-21T03:04:22.049Z,76.70
2017-07-21T03:06:49.175Z,76.30
2017-07-21T03:09:15.573Z,76.30
2017-07-21T03:11:41.993Z,76.60
2017-07-21T03:14:08.388Z,76.00
2017-07-21T03:16:34.840Z,75.90
2017-07-21T03:19:01.985Z,76.10
2017-07-21T03:21:29.120Z,75.60
2017-07-21T03:23:55.540Z,75.60
2017-07-21T03:26:21.953Z,75.30
2017-07-21T03:28:48.353Z,75.50
2017-07-21T03:31:14.747Z,75.20
2017-07-21T03:33:41.146Z,75.10
2017-07-21T03:36:07.565Z,75.10
2017-07-21T03:38:34.729Z,75.10
2017-07-21T03:41:01.109Z,75.40
2017-07-21T03:43:28.248Z,75.50
2017-07-21T03:45:54.668Z,75.50
2017-07-21T03:48:21.087Z,75.60
2017-07-21T03:50:47.564Z,75.50
2017-07-21T03:53:13.960Z,75.70
2017-07-21T03:55:40.360Z,75.60
2017-07-21T03:58:06.780Z,76.00
2017-07-21T04:00:33.179Z,76.10
2017-07-21T04:02:59.557Z,76.20
2017-07-21T04:05:25.976Z,76.70
2017-07-21T04:07:52.369Z,76.30
2017-07-21T04:10:18.779Z,76.10
2017-07-21T04:12:45.205Z,76.10
2017-07-21T04:15:12.076Z,76.10
2017-07-21T04:17:39.222Z,76.50
2017-07-21T04:20:05.605Z,76.10
2017-07-21T04:22:32.037Z,75.70
2017-07-21T04:24:58.436Z,76.00
2017-07-21T04:27:24.808Z,76.50
2017-07-21T04:29:51.313Z,76.60
2017-07-21T04:32:18.488Z,76.60
2017-07-21T04:34:44.871Z,76.60
2017-07-21T04:37:11.260Z,76.70
2017-07-21T04:39:37.655Z,76.90
2017-07-21T04:42:04.796Z,76.00
2017-07-21T04:44:31.204Z,76.50
2017-07-21T04:46:57.593Z,76.90
2017-07-21T04:49:23.980Z,77.20
2017-07-21T04:51:50.401Z,77.20
2017-07-21T04:54:16.851Z,77.30
2017-07-21T04:56:43.272Z,77.20
2017-07-21T04:59:09.660Z,77.40
2017-07-21T05:01:36.054Z,76.90
2017-07-21T05:04:02.455Z,76.90
2017-07-21T05:06:28.896Z,76.70
2017-07-21T05:08:55.317Z,76.80
2017-07-21T05:11:21.737Z,76.80
2017-07-21T05:13:48.146Z,76.60
2017-07-21T05:16:14.563Z,76.60
2017-07-21T05:18:40.978Z,76.40
2017-07-21T05:21:07.397Z,76.60
2017-07-21T05:23:33.793Z,76.80
2017-07-21T05:26:00.246Z,76.50
2017-07-21T05:28:27.288Z,76.60
2017-07-21T05:30:53.752Z,76.30
2017-07-21T05:33:20.181Z,76.70
2017-07-21T05:35:46.624Z,76.40
2017-07-21T05:38:13.025Z,76.00
2017-07-21T05:40:39.416Z,76.40
2017-07-21T05:43:06.552Z,76.10
2017-07-21T05:45:32.953Z,76.20
2017-07-21T05:47:59.357Z,76.30
2017-07-21T05:50:25.756Z,76.50
2017-07-21T05:52:52.903Z,74.60
2017-07-21T05:55:19.739Z,74.60
2017-07-21T05:57:46.956Z,75.20
2017-07-21T06:00:13.409Z,75.20
2017-07-21T06:02:39.916Z,74.10
2017-07-21T06:05:06.349Z,73.40
2017-07-21T06:07:33.909Z,73.10
2017-07-21T06:10:00.319Z,73.10
2017-07-21T06:12:27.569Z,71.20
2017-07-21T06:14:53.994Z,71.20
2017-07-21T06:17:20.399Z,71.30
2017-07-21T06:19:47.567Z,66.10
2017-07-21T06:22:14.719Z,64.60
2017-07-21T06:24:41.111Z,64.50
2017-07-21T06:27:07.522Z,64.60
2017-07-21T06:29:33.948Z,64.90
2017-07-21T06:32:00.943Z,62.70
2017-07-21T06:34:28.103Z,59.90
2017-07-21T06:36:55.271Z,60.40
2017-07-21T06:39:21.742Z,60.30
2017-07-21T06:41:48.251Z,59.60
2017-07-21T06:44:14.753Z,59.00
2017-07-21T06:46:41.193Z,59.30
2017-07-21T06:49:08.320Z,56.90
2017-07-21T06:51:34.876Z,56.90
2017-07-21T06:54:02.047Z,60.70
2017-07-21T06:56:28.448Z,60.70
2017-07-21T06:58:54.869Z,59.50
2017-07-21T07:01:21.566Z,59.00
2017-07-21T07:03:48.002Z,60.60
2017-07-21T07:06:14.400Z,60.70
2017-07-21T07:08:41.570Z,59.20
2017-07-21T07:11:08.053Z,59.20
2017-07-21T07:13:34.443Z,59.90
2017-07-21T07:16:01.187Z,59.00
2017-07-21T07:18:27.609Z,60.10
2017-07-21T07:20:54.330Z,59.70
2017-07-21T07:23:21.453Z,61.80
2017-07-21T07:25:47.940Z,61.60
2017-07-21T07:28:14.361Z,59.70
2017-07-21T07:30:40.777Z,61.10
2017-07-21T07:33:07.983Z,59.40
2017-07-21T07:35:35.444Z,59.40
2017-07-21T07:38:01.894Z,59.80
2017-07-21T07:40:28.318Z,59.40
2017-07-21T07:42:55.432Z,59.70
2017-07-21T07:45:22.418Z,61.90
2017-07-21T07:47:48.867Z,60.10
2017-07-21T07:50:15.276Z,59.90
2017-07-21T07:52:41.693Z,61.30
2017-07-21T07:55:08.108Z,60.50
2017-07-21T08:00:10.517Z,61.00
2017-07-21T08:02:36.925Z,60.40
2017-07-21T08:05:03.325Z,60.60
2017-07-21T08:07:29.728Z,60.70
2017-07-21T08:09:56.156Z,60.30
2017-07-21T08:12:22.622Z,59.90
2017-07-21T08:14:49.047Z,61.00
2017-07-21T08:17:15.551Z,60.20
2017-07-21T08:19:41.981Z,59.40
2017-07-21T08:22:08.397Z,60.00
2017-07-21T08:24:34.790Z,59.00
2017-07-21T08:27:01.219Z,58.80
2017-07-21T08:29:28.357Z,61.00
2017-07-21T08:31:54.765Z,60.30
2017-07-21T08:34:21.164Z,58.80
2017-07-21T08:36:47.589Z,57.80
2017-07-21T08:39:14.754Z,56.50
2017-07-21T08:41:41.169Z,56.50
2017-07-21T08:44:08.320Z,58.10
2017-07-21T08:46:35.468Z,57.80
2017-07-21T08:49:03.006Z,56.50
2017-07-21T08:51:29.404Z,56.50
2017-07-21T08:53:55.814Z,56.60
2017-07-21T08:56:22.225Z,56.20
2017-07-21T08:58:48.658Z,56.40
2017-07-21T09:01:15.802Z,56.30
2017-07-21T09:03:43.127Z,56.60
2017-07-21T09:06:09.545Z,56.50
2017-07-21T09:08:35.972Z,56.20
2017-07-21T09:11:02.388Z,54.30
2017-07-21T09:13:28.778Z,52.30
2017-07-21T09:15:55.174Z,52.20
2017-07-21T09:18:21.602Z,52.70
2017-07-21T09:20:48.009Z,52.40
2017-07-21T09:23:14.447Z,53.30
2017-07-21T09:25:40.918Z,51.90
2017-07-21T09:28:07.391Z,52.80
2017-07-21T09:30:34.566Z,51.60
2017-07-21T09:33:00.997Z,51.60
2017-07-21T09:35:27.393Z,52.00
2017-07-21T09:37:54.009Z,52.40
2017-07-21T09:40:20.396Z,51.80
2017-07-21T09:42:46.842Z,51.40
2017-07-21T09:45:22.185Z,49.90
2017-07-21T09:47:48.628Z,50.60
2017-07-21T09:50:15.066Z,49.70
2017-07-21T09:52:41.462Z,50.20
2017-07-21T09:55:08.645Z,49.90
2017-07-21T09:57:35.092Z,49.80
2017-07-21T10:00:01.529Z,49.30
2017-07-21T10:11:30.138Z,47.40
2017-07-21T10:13:56.526Z,47.40
2017-07-21T10:16:22.916Z,48.30
2017-07-21T10:18:49.692Z,49.20
2017-07-21T10:21:16.075Z,49.60
2017-07-21T10:23:42.490Z,45.40
2017-07-21T10:26:09.651Z,44.70
2017-07-21T10:28:36.058Z,44.60
2017-07-21T10:31:03.204Z,46.40
2017-07-21T10:33:29.594Z,46.40
2017-07-21T10:35:56.038Z,45.50
2017-07-21T10:38:22.500Z,44.70
2017-07-21T10:40:48.912Z,45.80
2017-07-21T10:43:15.310Z,46.20
2017-07-21T10:45:41.701Z,46.70
2017-07-21T10:48:08.144Z,44.00
2017-07-21T10:50:35.309Z,43.20
2017-07-21T10:53:01.773Z,43.20
2017-07-21T10:55:28.190Z,45.00
2017-07-21T10:57:54.580Z,45.60
2017-07-21T11:00:21.051Z,45.00
2017-07-21T11:02:47.475Z,45.40
2017-07-21T11:05:13.856Z,44.50
2017-07-21T11:07:40.248Z,44.80
2017-07-21T11:10:06.654Z,46.30
2017-07-21T11:12:33.829Z,46.70
2017-07-21T11:15:00.256Z,46.60
2017-07-21T11:17:26.622Z,44.00
2017-07-21T11:19:53.032Z,46.10
2017-07-21T11:22:19.446Z,42.50
2017-07-21T11:24:46.631Z,42.00
2017-07-21T11:27:13.051Z,42.00
2017-07-21T11:29:39.492Z,41.40
2017-07-21T11:32:05.968Z,41.30
2017-07-21T11:34:32.402Z,41.10
2017-07-21T11:36:58.863Z,41.20
2017-07-21T11:39:26.001Z,41.10
2017-07-21T11:41:52.448Z,41.10
2017-07-21T11:44:19.604Z,42.30
2017-07-21T11:46:45.999Z,42.30
2017-07-21T11:49:13.177Z,42.00
2017-07-21T11:51:40.329Z,39.10
2017-07-21T11:54:07.530Z,39.60
2017-07-21T11:56:33.913Z,39.60
2017-07-21T11:59:01.098Z,39.40
2017-07-21T12:01:27.564Z,39.30
2017-07-21T12:03:53.988Z,39.10
2017-07-21T12:06:20.419Z,38.30
2017-07-21T12:08:46.807Z,40.20
2017-07-21T12:11:13.210Z,39.10
2017-07-21T12:13:39.686Z,38.40
2017-07-21T12:16:06.119Z,38.60
2017-07-21T12:18:32.548Z,37.80
2017-07-21T12:20:59.685Z,36.90
2017-07-21T12:23:26.855Z,37.00
2017-07-21T12:25:53.282Z,37.00
2017-07-21T12:28:19.700Z,36.60
2017-07-21T12:30:46.100Z,36.90
2017-07-21T12:33:12.500Z,37.60
2017-07-21T12:35:38.895Z,35.80
2017-07-21T12:38:06.065Z,36.40
2017-07-21T12:40:32.472Z,36.30
2017-07-21T12:42:58.872Z,36.30
2017-07-21T12:45:25.307Z,37.10
2017-07-21T12:47:51.733Z,37.20
2017-07-21T12:50:18.198Z,35.50
2017-07-21T12:52:44.615Z,36.80
2017-07-21T12:55:11.064Z,37.20
2017-07-21T12:57:38.221Z,37.80
2017-07-21T13:00:05.609Z,37.10
2017-07-21T13:02:32.018Z,36.70
2017-07-21T13:04:59.181Z,36.70
2017-07-21T13:07:25.593Z,36.60
2017-07-21T13:09:52.772Z,34.10
2017-07-21T13:12:19.176Z,34.10
2017-07-21T13:14:46.358Z,34.00
2017-07-21T13:17:12.793Z,33.90
2017-07-21T13:19:39.193Z,35.10
2017-07-21T13:22:06.359Z,35.10
2017-07-21T13:24:32.804Z,35.10
2017-07-21T13:26:59.278Z,35.60
2017-07-21T13:29:25.722Z,35.30
2017-07-21T13:31:52.109Z,34.70
2017-07-21T13:34:18.520Z,33.60
2017-07-21T13:36:44.916Z,33.30
2017-07-21T13:39:11.345Z,34.90
2017-07-21T13:41:37.745Z,33.60
2017-07-21T13:44:04.189Z,33.70
2017-07-21T13:46:30.644Z,35.50
2017-07-21T13:48:57.833Z,33.90
2017-07-21T13:51:25.000Z,35.80
2017-07-21T13:53:51.395Z,35.80
2017-07-21T13:56:17.803Z,34.50
2017-07-21T13:58:44.189Z,33.80
2017-07-21T14:01:10.593Z,35.00
2017-07-21T14:03:37.010Z,34.30
2017-07-21T14:06:03.399Z,35.90
2017-07-21T14:08:29.837Z,34.30
2017-07-21T14:10:56.239Z,33.10
2017-07-21T14:13:22.622Z,33.30
2017-07-21T14:15:49.009Z,33.10
2017-07-21T14:18:16.144Z,32.50
2017-07-21T14:20:42.549Z,31.80
2017-07-21T14:23:08.945Z,31.40
2017-07-21T14:25:35.328Z,31.50
2017-07-21T14:28:01.749Z,33.20
2017-07-21T14:30:28.176Z,32.90
2017-07-21T14:32:54.614Z,33.70
2017-07-21T14:35:21.023Z,32.50
2017-07-21T14:37:47.449Z,32.20
2017-07-21T14:40:13.861Z,33.60
2017-07-21T14:42:41.045Z,32.90
2017-07-21T14:45:07.430Z,33.00
2017-07-21T14:47:33.854Z,32.70
2017-07-21T14:50:00.287Z,32.30
2017-07-21T14:52:26.703Z,32.20
2017-07-21T14:54:53.068Z,32.30
2017-07-21T14:57:20.201Z,32.90
2017-07-21T14:59:46.621Z,32.40
2017-07-21T15:02:13.027Z,33.80
2017-07-21T15:04:39.442Z,32.20
2017-07-21T15:07:05.822Z,32.20
2017-07-21T15:09:32.207Z,31.90
2017-07-21T15:11:58.592Z,30.30
2017-07-21T15:14:24.979Z,32.60
2017-07-21T15:16:51.394Z,32.60
2017-07-21T15:19:17.801Z,31.30
2017-07-21T15:21:44.195Z,32.60
2017-07-21T15:24:10.613Z,33.10
2017-07-21T15:26:37.033Z,32.00
2017-07-21T15:29:03.439Z,31.60
2017-07-21T15:31:30.587Z,31.60
2017-07-21T15:33:57.012Z,31.60
2017-07-21T15:36:23.405Z,32.10
2017-07-21T15:38:50.142Z,32.00
2017-07-21T15:41:16.910Z,30.60
2017-07-21T15:43:43.764Z,31.40
2017-07-21T15:46:10.160Z,30.60
2017-07-21T15:48:36.574Z,31.60
2017-07-21T15:51:02.997Z,32.50
2017-07-21T15:53:29.401Z,31.70
2017-07-21T15:55:55.813Z,31.40
2017-07-21T15:58:22.212Z,31.80
2017-07-21T16:00:48.634Z,31.50
2017-07-21T16:03:15.065Z,31.70
2017-07-21T16:05:41.462Z,30.70
2017-07-21T16:08:07.849Z,30.30
2017-07-21T16:10:34.266Z,30.20
2017-07-21T16:13:00.653Z,30.10
2017-07-21T16:15:27.029Z,30.10
2017-07-21T16:17:53.414Z,30.70
2017-07-21T16:20:19.844Z,30.00
2017-07-21T16:22:46.234Z,30.30
2017-07-21T16:25:13.600Z,31.10
2017-07-21T16:27:40.002Z,30.20
2017-07-21T16:30:06.446Z,31.10
2017-07-21T16:32:32.850Z,31.50
2017-07-21T16:34:59.226Z,32.50
2017-07-21T16:37:25.641Z,31.30
2017-07-21T16:39:52.770Z,32.10
2017-07-21T16:42:19.911Z,33.10
2017-07-21T16:44:46.317Z,33.10
2017-07-21T16:47:12.729Z,31.60
2017-07-21T16:49:39.138Z,31.30
2017-07-21T16:52:05.550Z,31.90
2017-07-21T16:54:31.933Z,33.20
2017-07-21T16:56:58.349Z,32.50
2017-07-21T16:59:24.742Z,32.30
2017-07-21T17:01:51.147Z,32.90
2017-07-21T17:04:17.539Z,33.30
2017-07-21T17:06:43.944Z,33.30
2017-07-21T17:09:10.357Z,33.10
2017-07-21T17:11:36.740Z,32.90
2017-07-21T17:14:03.129Z,33.60
2017-07-21T17:16:29.563Z,33.80
2017-07-21T17:18:55.969Z,33.80
2017-07-21T17:21:22.370Z,32.60
2017-07-21T17:23:48.775Z,32.80
2017-07-21T17:26:15.934Z,33.50
2017-07-21T17:28:43.105Z,33.20
2017-07-21T17:31:09.517Z,33.80
2017-07-21T17:33:35.941Z,33.70
2017-07-21T17:36:03.123Z,34.30
2017-07-21T17:38:29.553Z,33.70
2017-07-21T17:40:55.962Z,33.60
2017-07-21T17:43:23.139Z,34.40
2017-07-21T17:45:49.575Z,33.70
2017-07-21T17:48:30.942Z,34.30
2017-07-21T17:50:57.379Z,34.00
2017-07-21T17:53:23.809Z,34.60
2017-07-21T17:55:50.253Z,34.60
2017-07-21T17:58:16.671Z,35.10
2017-07-21T18:00:43.044Z,35.20
2017-07-21T18:03:09.451Z,35.50
2017-07-21T18:05:35.921Z,36.30
2017-07-21T18:08:02.358Z,36.40
2017-07-21T18:10:29.264Z,36.90
2017-07-21T18:12:55.676Z,36.30
2017-07-21T18:15:22.950Z,37.10
2017-07-21T18:17:49.390Z,37.00
2017-07-21T18:20:15.812Z,37.00
2017-07-21T18:22:42.208Z,37.00
2017-07-21T18:25:08.634Z,37.10
2017-07-21T18:27:35.070Z,37.00
2017-07-21T18:30:08.447Z,37.00
2017-07-21T18:32:34.887Z,38.30
2017-07-21T18:35:01.321Z,39.10
2017-07-21T18:37:27.767Z,40.00
2017-07-21T18:39:54.190Z,40.40
2017-07-21T18:42:20.596Z,40.80
2017-07-21T18:44:47.047Z,41.20
2017-07-21T18:47:13.491Z,41.50
2017-07-21T18:49:39.930Z,41.20
2017-07-21T18:52:06.352Z,40.90
2017-07-21T18:54:32.782Z,41.40
2017-07-21T18:56:59.383Z,41.50
2017-07-21T18:59:25.816Z,42.40
2017-07-21T19:01:52.258Z,42.80
2017-07-21T19:04:18.680Z,42.80
2017-07-21T19:06:45.111Z,42.50
2017-07-21T19:09:17.303Z,41.40
2017-07-21T19:11:43.711Z,41.50
2017-07-21T19:14:10.112Z,41.10
2017-07-21T19:16:36.541Z,40.40
2017-07-21T19:19:02.988Z,40.70
2017-07-21T19:21:30.137Z,41.40
2017-07-21T19:23:57.318Z,41.90
2017-07-21T19:26:23.752Z,41.80
2017-07-21T19:28:50.181Z,42.60
2017-07-21T19:31:23.470Z,43.50
2017-07-21T19:33:49.946Z,44.30
2017-07-21T19:36:16.381Z,45.00
2017-07-21T19:38:43.064Z,45.30
2017-07-21T19:41:10.250Z,46.00
2017-07-21T19:43:36.711Z,45.90
2017-07-21T19:46:03.976Z,46.10
2017-07-21T19:48:30.478Z,46.10
2017-07-21T19:50:56.956Z,46.40
2017-07-21T19:53:23.456Z,46.80
2017-07-21T19:55:49.888Z,47.20
2017-07-21T19:58:16.308Z,47.60
2017-07-21T20:00:42.777Z,48.00
2017-07-21T20:03:09.270Z,48.40
2017-07-21T20:05:35.785Z,48.40
2017-07-21T20:08:02.231Z,48.60
2017-07-21T20:10:28.689Z,48.70
2017-07-21T20:12:55.200Z,48.90
2017-07-21T20:15:21.651Z,49.20
2017-07-21T20:17:48.135Z,49.20
2017-07-21T20:20:15.322Z,49.70
2017-07-21T20:22:42.374Z,49.60
2017-07-21T20:25:08.793Z,49.60
2017-07-21T20:27:35.302Z,49.80
2017-07-21T20:30:02.557Z,50.30
2017-07-21T20:32:29.746Z,50.20
2017-07-21T20:34:56.192Z,50.10
2017-07-21T20:37:22.605Z,50.30
2017-07-21T20:39:49.012Z,50.40
2017-07-21T20:42:16.206Z,50.60
2017-07-21T20:44:42.669Z,50.60
2017-07-21T20:47:09.120Z,50.90
2017-07-21T20:49:35.557Z,51.30
2017-07-21T20:52:02.697Z,51.80
2017-07-21T20:54:29.153Z,51.70
2017-07-21T20:56:55.577Z,52.00
2017-07-21T20:59:22.030Z,51.80
2017-07-21T21:01:48.535Z,52.00
2017-07-21T21:04:15.686Z,53.50
2017-07-21T21:06:42.103Z,53.00
2017-07-21T21:09:08.529Z,53.60
2017-07-21T21:11:34.981Z,54.10
2017-07-21T21:14:01.421Z,53.90
2017-07-21T21:16:28.573Z,54.80
2017-07-21T21:18:54.974Z,54.50
2017-07-21T21:21:21.389Z,55.10
2017-07-21T21:23:47.802Z,54.80
2017-07-21T21:26:14.265Z,54.20
2017-07-21T21:28:40.720Z,54.00
2017-07-21T21:31:07.120Z,53.80
2017-07-21T21:33:33.545Z,53.90
2017-07-21T21:35:59.993Z,53.90
2017-07-21T21:38:26.401Z,53.90
2017-07-21T21:40:53.208Z,54.00
2017-07-21T21:43:19.607Z,53.90
2017-07-21T21:45:46.016Z,54.00
2017-07-21T21:48:12.403Z,54.10
2017-07-21T21:50:38.795Z,54.10
2017-07-21T21:53:05.203Z,53.90
2017-07-21T21:55:31.584Z,54.60
2017-07-21T21:57:57.969Z,54.50
2017-07-21T22:00:24.405Z,54.60
2017-07-21T22:02:50.844Z,54.70
2017-07-21T22:05:17.267Z,54.60
2017-07-21T22:07:43.672Z,54.50
2017-07-21T22:10:10.071Z,54.70
2017-07-21T22:12:36.453Z,54.70
2017-07-21T22:15:02.921Z,55.00
2017-07-21T22:17:29.370Z,55.50
2017-07-21T22:19:55.767Z,54.90
2017-07-21T22:22:22.145Z,55.10
2017-07-21T22:24:48.538Z,55.50
2017-07-21T22:27:14.947Z,55.60
2017-07-21T22:29:42.071Z,56.70
2017-07-21T22:32:08.484Z,56.00
2017-07-21T22:34:34.889Z,55.60
2017-07-21T22:37:01.303Z,56.10
2017-07-21T22:39:28.496Z,56.10
2017-07-21T22:41:54.898Z,56.20
2017-07-21T22:44:21.300Z,56.60
2017-07-21T22:46:48.471Z,56.50
2017-07-21T22:49:14.876Z,57.10
2017-07-21T22:51:41.261Z,56.60
2017-07-21T22:54:07.669Z,57.00
2017-07-21T22:56:34.469Z,57.40
2017-07-21T22:59:00.902Z,57.30
2017-07-21T23:01:27.323Z,57.70
2017-07-21T23:03:53.929Z,58.00
2017-07-21T23:06:20.332Z,58.10
2017-07-21T23:08:47.465Z,58.50
2017-07-21T23:11:13.867Z,58.50
2017-07-21T23:13:40.295Z,58.40
2017-07-21T23:16:06.706Z,58.70
2017-07-21T23:18:33.089Z,58.40
2017-07-21T23:20:59.501Z,58.90
2017-07-21T23:23:25.886Z,59.00
2017-07-21T23:31:04.273Z,60.00
2017-07-21T23:33:30.681Z,60.20
2017-07-21T23:35:57.106Z,60.50
2017-07-21T23:38:23.515Z,61.00
2017-07-21T23:40:50.725Z,61.90
2017-07-21T23:43:17.129Z,61.90
2017-07-21T23:45:43.559Z,61.80
2017-07-21T23:48:10.004Z,61.80
2017-07-21T23:50:36.425Z,62.10
2017-07-21T23:53:03.225Z,62.80
2017-07-21T23:55:29.634Z,63.50
2017-07-21T23:57:56.031Z,63.80
